ADDS METAR Data INFO
IDs: Format: Raw Decoded Include TAF

Data at: 2320 UTC 15 Jul 2018

KAZO 152253Z 28004KT 10SM FEW055 32/20 A2993 RMK AO2 SLP129 T03170200
KAZO 152153Z VRB04KT 10SM SCT050 33/19 A2994 RMK AO2 SLP132 T03330194
KAZO 152053Z 23007KT 10SM CLR 34/19 A2995 RMK AO2 SLP136 T03390194 58017
KAZO 151953Z VRB04KT 10SM SCT044 BKN090 32/20 A2998 RMK AO2 SLP143 T03220200
KAZO 151853Z VRB03KT 10SM FEW043 SCT080 32/20 A2999 RMK AO2 SLP149 T03220200
KAZO 151753Z COR 18005KT 10SM BKN037 32/21 A3000 RMK AO2 SLP153 T03170206 10317 20228 56004
KAZO 151653Z 22008KT 10SM BKN033 31/21 A3000 RMK AO2 SLP153 T03110211
KAZO 151553Z VRB05KT 10SM BKN029 30/21 A3001 RMK AO2 SLP155 T03000211
KAZO 151453Z 19006KT 10SM BKN030 28/21 A3002 RMK AO2 SLP158 T02830211 56009
KAZO 151353Z 15006KT 10SM CLR 27/20 A3002 RMK AO2 SLP161 T02720200
KAZO 151253Z 00000KT 9SM CLR 25/21 A3003 RMK AO2 SLP164 T02500206
KAZO 151215Z 00000KT 6SM HZ FEW025 BKN030 23/21 A3003 RMK AO2 T02330206
KAZO 151153Z 00000KT 5SM BR BKN028 OVC075 23/21 A3004 RMK AO2 SLP167 70004 T02280206 10228 20194 53001
KAZO 151150Z 00000KT 5SM BR BKN028 BKN075 23/21 A3004 RMK AO2
KAZO 151053Z 00000KT 3SM BR CLR 21/19 A3003 RMK AO2 SLP165 T02060194
KAZO 150953Z 00000KT 4SM BR BKN100 21/19 A3004 RMK AO2 SLP167 T02060189
KAZO 150917Z AUTO 00000KT 5SM BR OVC100 21/19 A3004 RMK AO2 T02110194
KAZO 150910Z AUTO 00000KT 2SM BR BKN100 21/19 A3004 RMK AO2 T02060194
KAZO 150859Z AUTO 00000KT 3/4SM R35/P6000FT BR BKN100 20/19 A3004 RMK AO2 T02000189
KAZO 150853Z AUTO 00000KT 4SM BR SCT100 20/19 A3004 RMK AO2 SLP168 T02000189 56002
KAZO 150839Z AUTO 00000KT 3SM BR CLR 20/19 A3004 RMK AO2 T02000189
KAZO 150832Z AUTO 00000KT 2 1/2SM BR CLR 20/19 A3004 RMK AO2 T02000189
KAZO 150826Z AUTO 00000KT 3/4SM R35/P6000FT BR CLR 21/19 A3004 RMK AO2 T02060189
KAZO 150813Z AUTO 00000KT 1 1/2SM BR CLR 20/19 A3004 RMK AO2 T02000189
KAZO 150753Z AUTO 00000KT 4SM BR CLR 21/19 A3004 RMK AO2 SLP169 T02060194
KAZO 150653Z AUTO 00000KT 7SM BKN090 22/20 A3003 RMK AO2 SLP164 T02170200
KAZO 150553Z AUTO 06003KT 8SM FEW043 FEW080 BKN090 22/20 A3005 RMK AO2 SLP169 T02170200 10272 20211 56003
KAZO 150453Z AUTO 00000KT 7SM BKN043 22/21 A3005 RMK AO2 SLP170 T02220206 402780211
KAZO 150353Z AUTO 00000KT 9SM CLR 22/19 A3005 RMK AO2 SLP169 T02170194
KAZO 150253Z AUTO 00000KT 10SM CLR 23/20 A3006 RMK AO2 SLP172 T02280200 51010
KAZO 150153Z 00000KT 10SM CLR 23/20 A3004 RMK AO2 SLP168 T02330200
KAZO 150053Z 00000KT 10SM CLR 26/21 A3004 RMK AO2 SLP167 T02610206
KAZO 142353Z 32003KT 10SM CLR 27/20 A3002 RMK AO2 SLP161 60003 T02670200 10272 20250 55012
KAZO 142253Z 01005KT 10SM CLR 27/21 A3002 RMK AO2 SLP160 T02720206
KAZO 142153Z 35004KT 10SM SCT075 BKN120 26/21 A3005 RMK AO2 RAE11 SLP170 P0000 T02610211
KAZO 142053Z 25004KT 9SM -RA BKN080 OVC095 26/22 A3006 RMK AO2 SLP174 P0001 60003 T02560217 58017
KAZO 141953Z 28003KT 5SM -RA FEW075 BKN095 OVC110 26/21 A3009 RMK AO2 RAB12 SLP185 P0001 T02560211
KAZO 141853Z 24005KT 9SM FEW035 SCT120 26/22 A3009 RMK AO2 RAE42 SLP184 P0001 T02610217
KAZO 141753Z 10SM -RA SCT043 BKN075 OVC110 26/22 A3011 RMK AO2 SLP190 P0001 60001 T02610222 10278 20233 53008
KAZO 141653Z 30004KT 6SM -RA BKN100 OVC120 26/21 A3011 RMK AO2 RAE06B45 SLP189 P0000 T02610206
KAZO 141553Z 00000KT 10SM -RA FEW080 BKN110 27/19 A3008 RMK AO2 RAB44 SLP179 P0000 T02720194
KAZO 141453Z 30006KT 10SM FEW037 SCT120 27/19 A3008 RMK AO2 SLP181 60000 T02720194 58000
KAZO 141353Z 00000KT 10SM FEW035 26/19 A3008 RMK AO2 RAB26E35 SLP180 P0000 T02610194
KAZO 141253Z 28006KT 8SM CLR 25/19 A3009 RMK AO2 SLP184 T02500194
KAZO 141153Z 21003KT 8SM CLR 23/19 A3009 RMK AO2 SLP181 T02330189 10233 20211 51015